sensor_id;sensor_type;location;lat;lon;timestamp;temperature;humidity
76893;DHT22;65854;51.466;7.260;2023-03-01T00:01:31;0.50;67.00
76893;DHT22;65854;51.466;7.260;2023-03-01T00:03:57;0.50;67.20
76893;DHT22;65854;51.466;7.260;2023-03-01T00:06:24;0.50;66.40
76893;DHT22;65854;51.466;7.260;2023-03-01T00:08:50;0.50;67.30
76893;DHT22;65854;51.466;7.260;2023-03-01T00:11:27;0.50;66.90
76893;DHT22;65854;51.466;7.260;2023-03-01T00:13:55;0.50;67.30
76893;DHT22;65854;51.466;7.260;2023-03-01T00:16:27;0.50;66.50
76893;DHT22;65854;51.466;7.260;2023-03-01T00:18:54;0.40;66.20
76893;DHT22;65854;51.466;7.260;2023-03-01T00:21:21;0.50;66.50
76893;DHT22;65854;51.466;7.260;2023-03-01T00:23:50;0.50;66.50
76893;DHT22;65854;51.466;7.260;2023-03-01T00:26:16;0.40;66.60
76893;DHT22;65854;51.466;7.260;2023-03-01T00:28:43;0.40;66.20
76893;DHT22;65854;51.466;7.260;2023-03-01T00:31:14;0.40;66.10
76893;DHT22;65854;51.466;7.260;2023-03-01T00:33:41;0.40;66.40
76893;DHT22;65854;51.466;7.260;2023-03-01T00:36:07;0.40;66.60
76893;DHT22;65854;51.466;7.260;2023-03-01T00:38:38;0.30;66.50
76893;DHT22;65854;51.466;7.260;2023-03-01T00:41:13;0.30;66.60
76893;DHT22;65854;51.466;7.260;2023-03-01T00:43:39;0.30;66.90
76893;DHT22;65854;51.466;7.260;2023-03-01T00:46:10;0.40;66.70
76893;DHT22;65854;51.466;7.260;2023-03-01T00:48:36;0.40;67.10
76893;DHT22;65854;51.466;7.260;2023-03-01T00:51:10;0.40;67.10
76893;DHT22;65854;51.466;7.260;2023-03-01T00:53:36;0.40;66.40
76893;DHT22;65854;51.466;7.260;2023-03-01T00:56:02;0.40;66.40
76893;DHT22;65854;51.466;7.260;2023-03-01T00:58:27;0.30;66.50
76893;DHT22;65854;51.466;7.260;2023-03-01T01:00:53;0.30;66.50
76893;DHT22;65854;51.466;7.260;2023-03-01T01:03:19;0.30;67.20
76893;DHT22;65854;51.466;7.260;2023-03-01T01:05:45;0.20;67.20
76893;DHT22;65854;51.466;7.260;2023-03-01T01:08:11;0.10;67.10
76893;DHT22;65854;51.466;7.260;2023-03-01T01:10:36;0.10;67.60
76893;DHT22;65854;51.466;7.260;2023-03-01T01:13:02;0.00;67.80
76893;DHT22;65854;51.466;7.260;2023-03-01T01:15:28;0.00;68.10
76893;DHT22;65854;51.466;7.260;2023-03-01T01:17:54;0.00;68.00
76893;DHT22;65854;51.466;7.260;2023-03-01T01:20:21;-0.10;68.40
76893;DHT22;65854;51.466;7.260;2023-03-01T01:22:46;-0.10;68.40
76893;DHT22;65854;51.466;7.260;2023-03-01T01:25:12;-0.20;68.70
76893;DHT22;65854;51.466;7.260;2023-03-01T01:27:37;-0.20;68.80
76893;DHT22;65854;51.466;7.260;2023-03-01T01:30:04;-0.20;68.80
76893;DHT22;65854;51.466;7.260;2023-03-01T01:32:30;-0.20;68.70
76893;DHT22;65854;51.466;7.260;2023-03-01T01:34:56;-0.20;68.70
76893;DHT22;65854;51.466;7.260;2023-03-01T01:37:21;-0.30;68.50
76893;DHT22;65854;51.466;7.260;2023-03-01T01:39:47;-0.30;68.90
76893;DHT22;65854;51.466;7.260;2023-03-01T01:42:15;-0.40;69.20
76893;DHT22;65854;51.466;7.260;2023-03-01T01:44:44;-0.40;69.40
76893;DHT22;65854;51.466;7.260;2023-03-01T01:47:14;-0.40;69.40
76893;DHT22;65854;51.466;7.260;2023-03-01T01:49:48;-0.40;70.00
76893;DHT22;65854;51.466;7.260;2023-03-01T01:57:36;-0.30;68.60
76893;DHT22;65854;51.466;7.260;2023-03-01T02:02:37;-0.30;68.70
76893;DHT22;65854;51.466;7.260;2023-03-01T02:05:10;-0.20;68.30
76893;DHT22;65854;51.466;7.260;2023-03-01T02:07:39;-0.20;68.00
76893;DHT22;65854;51.466;7.260;2023-03-01T02:10:05;-0.20;68.50
76893;DHT22;65854;51.466;7.260;2023-03-01T02:12:31;-0.20;68.40
76893;DHT22;65854;51.466;7.260;2023-03-01T02:14:57;-0.20;68.50
76893;DHT22;65854;51.466;7.260;2023-03-01T02:17:23;-0.20;68.40
76893;DHT22;65854;51.466;7.260;2023-03-01T02:20:43;-0.20;68.30
76893;DHT22;65854;51.466;7.260;2023-03-01T02:22:48;-0.20;68.30
76893;DHT22;65854;51.466;7.260;2023-03-01T02:27:58;-0.30;68.00
76893;DHT22;65854;51.466;7.260;2023-03-01T02:30:25;-0.40;68.50
76893;DHT22;65854;51.466;7.260;2023-03-01T02:32:54;-0.40;68.70
76893;DHT22;65854;51.466;7.260;2023-03-01T02:35:24;-0.40;68.30
76893;DHT22;65854;51.466;7.260;2023-03-01T02:37:50;-0.50;68.70
76893;DHT22;65854;51.466;7.260;2023-03-01T02:40:17;-0.50;68.80
76893;DHT22;65854;51.466;7.260;2023-03-01T02:42:49;-0.50;69.10
76893;DHT22;65854;51.466;7.260;2023-03-01T02:45:16;-0.50;69.10
76893;DHT22;65854;51.466;7.260;2023-03-01T02:47:41;-0.50;69.10
76893;DHT22;65854;51.466;7.260;2023-03-01T02:53:09;-0.60;69.30
76893;DHT22;65854;51.466;7.260;2023-03-01T02:55:38;-0.60;69.50
76893;DHT22;65854;51.466;7.260;2023-03-01T02:58:04;-0.60;70.10
76893;DHT22;65854;51.466;7.260;2023-03-01T03:00:38;-0.60;70.00
76893;DHT22;65854;51.466;7.260;2023-03-01T03:03:05;-0.60;70.00
76893;DHT22;65854;51.466;7.260;2023-03-01T03:05:32;-0.70;70.00
76893;DHT22;65854;51.466;7.260;2023-03-01T03:08:00;-0.70;70.20
76893;DHT22;65854;51.466;7.260;2023-03-01T03:10:29;-0.70;69.80
76893;DHT22;65854;51.466;7.260;2023-03-01T03:13:01;-0.70;70.10
76893;DHT22;65854;51.466;7.260;2023-03-01T03:15:27;-0.70;70.10
76893;DHT22;65854;51.466;7.260;2023-03-01T03:17:54;-0.70;70.10
76893;DHT22;65854;51.466;7.260;2023-03-01T03:20:23;-0.70;70.00
76893;DHT22;65854;51.466;7.260;2023-03-01T03:22:52;-0.70;70.60
76893;DHT22;65854;51.466;7.260;2023-03-01T03:25:19;-0.70;70.60
76893;DHT22;65854;51.466;7.260;2023-03-01T03:27:47;-0.70;70.30
76893;DHT22;65854;51.466;7.260;2023-03-01T03:30:18;-0.70;70.80
76893;DHT22;65854;51.466;7.260;2023-03-01T03:32:46;-0.80;70.90
76893;DHT22;65854;51.466;7.260;2023-03-01T03:37:44;-0.90;70.80
76893;DHT22;65854;51.466;7.260;2023-03-01T03:40:30;-1.00;71.20
76893;DHT22;65854;51.466;7.260;2023-03-01T03:42:56;-1.00;71.20
76893;DHT22;65854;51.466;7.260;2023-03-01T03:45:22;-1.00;71.00
76893;DHT22;65854;51.466;7.260;2023-03-01T03:47:48;-1.00;71.40
76893;DHT22;65854;51.466;7.260;2023-03-01T03:50:16;-1.00;71.20
76893;DHT22;65854;51.466;7.260;2023-03-01T03:52:42;-1.00;71.10
76893;DHT22;65854;51.466;7.260;2023-03-01T03:55:09;-1.00;70.80
76893;DHT22;65854;51.466;7.260;2023-03-01T03:57:41;-1.00;71.00
76893;DHT22;65854;51.466;7.260;2023-03-01T04:00:10;-1.10;70.40
76893;DHT22;65854;51.466;7.260;2023-03-01T04:02:44;-1.10;70.50
76893;DHT22;65854;51.466;7.260;2023-03-01T04:05:13;-1.10;70.90
76893;DHT22;65854;51.466;7.260;2023-03-01T04:07:40;-1.10;71.40
76893;DHT22;65854;51.466;7.260;2023-03-01T04:10:08;-1.10;71.20
76893;DHT22;65854;51.466;7.260;2023-03-01T04:12:34;-1.10;71.40
76893;DHT22;65854;51.466;7.260;2023-03-01T04:15:00;-1.20;71.30
76893;DHT22;65854;51.466;7.260;2023-03-01T04:17:26;-1.10;71.70
76893;DHT22;65854;51.466;7.260;2023-03-01T04:19:52;-1.10;71.80
76893;DHT22;65854;51.466;7.260;2023-03-01T04:22:18;-1.10;71.60
76893;DHT22;65854;51.466;7.260;2023-03-01T04:24:44;-1.10;71.70
76893;DHT22;65854;51.466;7.260;2023-03-01T04:27:11;-1.10;71.10
76893;DHT22;65854;51.466;7.260;2023-03-01T04:29:37;-1.10;71.10
76893;DHT22;65854;51.466;7.260;2023-03-01T04:32:03;-1.10;71.00
76893;DHT22;65854;51.466;7.260;2023-03-01T04:34:29;-1.20;71.30
76893;DHT22;65854;51.466;7.260;2023-03-01T04:36:55;-1.20;71.00
76893;DHT22;65854;51.466;7.260;2023-03-01T04:39:21;-1.20;70.40
76893;DHT22;65854;51.466;7.260;2023-03-01T04:41:46;-1.40;70.70
76893;DHT22;65854;51.466;7.260;2023-03-01T04:44:12;-1.40;71.10
76893;DHT22;65854;51.466;7.260;2023-03-01T04:46:38;-1.40;71.20
76893;DHT22;65854;51.466;7.260;2023-03-01T04:49:04;-1.40;71.40
76893;DHT22;65854;51.466;7.260;2023-03-01T04:51:30;-1.40;71.40
76893;DHT22;65854;51.466;7.260;2023-03-01T04:53:57;-1.40;71.80
76893;DHT22;65854;51.466;7.260;2023-03-01T04:56:23;-1.40;72.00
76893;DHT22;65854;51.466;7.260;2023-03-01T04:58:49;-1.40;72.10
76893;DHT22;65854;51.466;7.260;2023-03-01T05:01:17;-1.40;72.10
76893;DHT22;65854;51.466;7.260;2023-03-01T05:03:44;-1.40;72.20
76893;DHT22;65854;51.466;7.260;2023-03-01T05:06:11;-1.40;71.90
76893;DHT22;65854;51.466;7.260;2023-03-01T05:08:38;-1.40;72.00
76893;DHT22;65854;51.466;7.260;2023-03-01T05:11:04;-1.40;72.10
76893;DHT22;65854;51.466;7.260;2023-03-01T05:13:30;-1.40;72.30
76893;DHT22;65854;51.466;7.260;2023-03-01T05:15:59;-1.40;71.80
76893;DHT22;65854;51.466;7.260;2023-03-01T05:18:26;-1.40;71.70
76893;DHT22;65854;51.466;7.260;2023-03-01T05:20:53;-1.30;71.60
76893;DHT22;65854;51.466;7.260;2023-03-01T05:23:22;-1.40;71.50
76893;DHT22;65854;51.466;7.260;2023-03-01T05:25:48;-1.40;71.50
76893;DHT22;65854;51.466;7.260;2023-03-01T05:28:15;-1.40;71.50
76893;DHT22;65854;51.466;7.260;2023-03-01T05:30:40;-1.40;71.10
76893;DHT22;65854;51.466;7.260;2023-03-01T05:33:07;-1.50;71.20
76893;DHT22;65854;51.466;7.260;2023-03-01T05:35:42;-1.50;71.40
76893;DHT22;65854;51.466;7.260;2023-03-01T05:38:09;-1.50;71.50
76893;DHT22;65854;51.466;7.260;2023-03-01T05:40:38;-1.50;71.40
76893;DHT22;65854;51.466;7.260;2023-03-01T05:43:04;-1.50;71.50
76893;DHT22;65854;51.466;7.260;2023-03-01T05:45:31;-1.60;71.20
76893;DHT22;65854;51.466;7.260;2023-03-01T05:47:58;-1.70;71.70
76893;DHT22;65854;51.466;7.260;2023-03-01T05:50:29;-1.70;72.10
76893;DHT22;65854;51.466;7.260;2023-03-01T05:55:29;-1.70;72.40
76893;DHT22;65854;51.466;7.260;2023-03-01T05:57:54;-1.70;72.20
76893;DHT22;65854;51.466;7.260;2023-03-01T06:00:21;-1.70;72.30
76893;DHT22;65854;51.466;7.260;2023-03-01T06:02:49;-1.70;72.40
76893;DHT22;65854;51.466;7.260;2023-03-01T06:05:17;-1.70;72.70
76893;DHT22;65854;51.466;7.260;2023-03-01T06:07:42;-1.70;72.70
76893;DHT22;65854;51.466;7.260;2023-03-01T06:10:10;-1.70;72.50
76893;DHT22;65854;51.466;7.260;2023-03-01T06:12:37;-1.70;72.90
76893;DHT22;65854;51.466;7.260;2023-03-01T06:15:04;-1.70;72.60
76893;DHT22;65854;51.466;7.260;2023-03-01T06:17:33;-1.70;72.60
76893;DHT22;65854;51.466;7.260;2023-03-01T06:20:08;-1.70;72.70
76893;DHT22;65854;51.466;7.260;2023-03-01T06:22:34;-1.70;72.40
76893;DHT22;65854;51.466;7.260;2023-03-01T06:25:00;-1.70;72.30
76893;DHT22;65854;51.466;7.260;2023-03-01T06:27:25;-1.70;72.50
76893;DHT22;65854;51.466;7.260;2023-03-01T06:29:51;-1.70;72.40
76893;DHT22;65854;51.466;7.260;2023-03-01T06:32:17;-1.70;72.40
76893;DHT22;65854;51.466;7.260;2023-03-01T06:34:43;-1.70;72.40
76893;DHT22;65854;51.466;7.260;2023-03-01T06:37:09;-1.60;72.30
76893;DHT22;65854;51.466;7.260;2023-03-01T06:39:35;-1.60;72.60
76893;DHT22;65854;51.466;7.260;2023-03-01T06:42:00;-1.50;72.30
76893;DHT22;65854;51.466;7.260;2023-03-01T06:44:26;-1.50;72.10
76893;DHT22;65854;51.466;7.260;2023-03-01T06:46:52;-1.50;72.00
76893;DHT22;65854;51.466;7.260;2023-03-01T06:49:17;-1.50;72.20
76893;DHT22;65854;51.466;7.260;2023-03-01T06:51:44;-1.40;71.90
76893;DHT22;65854;51.466;7.260;2023-03-01T06:54:10;-1.40;71.80
76893;DHT22;65854;51.466;7.260;2023-03-01T06:56:35;-1.40;71.80
76893;DHT22;65854;51.466;7.260;2023-03-01T06:59:01;-1.40;71.90
76893;DHT22;65854;51.466;7.260;2023-03-01T07:01:28;-1.40;71.80
76893;DHT22;65854;51.466;7.260;2023-03-01T07:03:54;-1.40;71.40
76893;DHT22;65854;51.466;7.260;2023-03-01T07:06:21;-1.40;71.60
76893;DHT22;65854;51.466;7.260;2023-03-01T07:08:46;-1.30;71.80
76893;DHT22;65854;51.466;7.260;2023-03-01T07:11:12;-1.30;71.70
76893;DHT22;65854;51.466;7.260;2023-03-01T07:13:38;-1.30;71.60
76893;DHT22;65854;51.466;7.260;2023-03-01T07:16:04;-1.20;71.20
76893;DHT22;65854;51.466;7.260;2023-03-01T07:18:30;-1.20;71.10
76893;DHT22;65854;51.466;7.260;2023-03-01T07:20:55;-1.20;71.10
76893;DHT22;65854;51.466;7.260;2023-03-01T07:23:21;-1.20;71.00
76893;DHT22;65854;51.466;7.260;2023-03-01T07:25:54;-1.20;71.00
76893;DHT22;65854;51.466;7.260;2023-03-01T07:28:20;-1.10;70.90
76893;DHT22;65854;51.466;7.260;2023-03-01T07:30:46;-1.20;71.00
76893;DHT22;65854;51.466;7.260;2023-03-01T07:33:12;-1.30;71.20
76893;DHT22;65854;51.466;7.260;2023-03-01T07:35:38;-1.30;71.70
76893;DHT22;65854;51.466;7.260;2023-03-01T07:38:04;-1.30;71.80
76893;DHT22;65854;51.466;7.260;2023-03-01T07:40:31;-1.30;71.80
76893;DHT22;65854;51.466;7.260;2023-03-01T07:43:02;-1.20;71.70
76893;DHT22;65854;51.466;7.260;2023-03-01T07:45:29;-1.20;71.70
76893;DHT22;65854;51.466;7.260;2023-03-01T07:47:55;-1.10;71.40
76893;DHT22;65854;51.466;7.260;2023-03-01T07:50:22;-1.00;71.20
76893;DHT22;65854;51.466;7.260;2023-03-01T07:52:49;-1.00;70.80
76893;DHT22;65854;51.466;7.260;2023-03-01T07:55:17;-1.00;71.00
76893;DHT22;65854;51.466;7.260;2023-03-01T07:57:45;-0.90;71.20
76893;DHT22;65854;51.466;7.260;2023-03-01T08:00:12;-0.80;70.60
76893;DHT22;65854;51.466;7.260;2023-03-01T08:02:38;-0.80;70.60
76893;DHT22;65854;51.466;7.260;2023-03-01T08:05:05;-0.60;70.20
76893;DHT22;65854;51.466;7.260;2023-03-01T08:07:32;-0.60;69.80
76893;DHT22;65854;51.466;7.260;2023-03-01T08:09:58;-0.50;69.30
76893;DHT22;65854;51.466;7.260;2023-03-01T08:12:26;-0.60;69.30
76893;DHT22;65854;51.466;7.260;2023-03-01T08:14:54;-0.50;69.50
76893;DHT22;65854;51.466;7.260;2023-03-01T08:17:20;-0.50;69.50
76893;DHT22;65854;51.466;7.260;2023-03-01T08:19:46;-0.50;69.80
76893;DHT22;65854;51.466;7.260;2023-03-01T08:22:11;-0.40;69.70
76893;DHT22;65854;51.466;7.260;2023-03-01T08:24:37;-0.40;69.10
76893;DHT22;65854;51.466;7.260;2023-03-01T08:27:04;-0.40;69.50
76893;DHT22;65854;51.466;7.260;2023-03-01T08:29:34;-0.30;68.60
76893;DHT22;65854;51.466;7.260;2023-03-01T08:32:01;-0.20;69.20
76893;DHT22;65854;51.466;7.260;2023-03-01T08:34:27;-0.10;68.70
76893;DHT22;65854;51.466;7.260;2023-03-01T08:36:53;0.00;68.50
76893;DHT22;65854;51.466;7.260;2023-03-01T08:39:20;0.00;68.10
76893;DHT22;65854;51.466;7.260;2023-03-01T08:41:46;0.10;68.30
76893;DHT22;65854;51.466;7.260;2023-03-01T08:44:13;0.20;68.40
76893;DHT22;65854;51.466;7.260;2023-03-01T08:46:49;0.20;68.20
76893;DHT22;65854;51.466;7.260;2023-03-01T08:49:34;0.30;68.20
76893;DHT22;65854;51.466;7.260;2023-03-01T08:52:01;0.40;67.90
76893;DHT22;65854;51.466;7.260;2023-03-01T08:54:27;0.40;67.00
76893;DHT22;65854;51.466;7.260;2023-03-01T08:56:54;0.40;67.90
76893;DHT22;65854;51.466;7.260;2023-03-01T08:59:19;0.40;66.90
76893;DHT22;65854;51.466;7.260;2023-03-01T09:01:45;0.50;66.30
76893;DHT22;65854;51.466;7.260;2023-03-01T09:04:11;0.50;66.10
76893;DHT22;65854;51.466;7.260;2023-03-01T09:06:37;0.50;65.40
76893;DHT22;65854;51.466;7.260;2023-03-01T09:09:04;0.50;65.50
76893;DHT22;65854;51.466;7.260;2023-03-01T09:11:41;0.50;64.50
76893;DHT22;65854;51.466;7.260;2023-03-01T09:14:27;0.60;64.50
76893;DHT22;65854;51.466;7.260;2023-03-01T09:16:52;0.60;64.70
76893;DHT22;65854;51.466;7.260;2023-03-01T09:19:18;0.70;64.70
76893;DHT22;65854;51.466;7.260;2023-03-01T09:21:45;0.80;64.10
76893;DHT22;65854;51.466;7.260;2023-03-01T09:24:25;0.80;63.20
76893;DHT22;65854;51.466;7.260;2023-03-01T09:26:59;0.90;63.30
76893;DHT22;65854;51.466;7.260;2023-03-01T09:29:26;1.00;63.30
76893;DHT22;65854;51.466;7.260;2023-03-01T09:31:53;1.10;62.50
76893;DHT22;65854;51.466;7.260;2023-03-01T09:34:20;1.10;62.10
76893;DHT22;65854;51.466;7.260;2023-03-01T09:36:50;1.20;62.50
76893;DHT22;65854;51.466;7.260;2023-03-01T09:39:17;1.20;62.60
76893;DHT22;65854;51.466;7.260;2023-03-01T09:42:02;1.30;61.40
76893;DHT22;65854;51.466;7.260;2023-03-01T09:44:40;1.40;61.20
76893;DHT22;65854;51.466;7.260;2023-03-01T09:50:06;1.50;60.40
76893;DHT22;65854;51.466;7.260;2023-03-01T09:53:00;1.50;59.80
76893;DHT22;65854;51.466;7.260;2023-03-01T09:58:37;1.70;59.60
76893;DHT22;65854;51.466;7.260;2023-03-01T10:01:34;1.70;59.10
76893;DHT22;65854;51.466;7.260;2023-03-01T10:07:26;1.80;57.80
76893;DHT22;65854;51.466;7.260;2023-03-01T10:09:53;1.90;58.30
76893;DHT22;65854;51.466;7.260;2023-03-01T10:12:42;1.90;58.40
76893;DHT22;65854;51.466;7.260;2023-03-01T10:15:16;1.90;58.20
76893;DHT22;65854;51.466;7.260;2023-03-01T10:17:58;1.90;57.70
76893;DHT22;65854;51.466;7.260;2023-03-01T10:21:00;2.00;58.20
76893;DHT22;65854;51.466;7.260;2023-03-01T10:23:51;2.00;58.40
76893;DHT22;65854;51.466;7.260;2023-03-01T10:29:06;2.10;57.90
76893;DHT22;65854;51.466;7.260;2023-03-01T10:31:47;2.10;57.70
76893;DHT22;65854;51.466;7.260;2023-03-01T10:34:19;2.10;57.80
76893;DHT22;65854;51.466;7.260;2023-03-01T10:36:51;2.20;57.90
76893;DHT22;65854;51.466;7.260;2023-03-01T10:39:20;2.20;57.50
76893;DHT22;65854;51.466;7.260;2023-03-01T10:42:01;2.30;56.90
76893;DHT22;65854;51.466;7.260;2023-03-01T10:44:44;2.30;56.70
76893;DHT22;65854;51.466;7.260;2023-03-01T10:47:32;2.40;57.40
76893;DHT22;65854;51.466;7.260;2023-03-01T10:50:04;2.50;57.10
76893;DHT22;65854;51.466;7.260;2023-03-01T10:52:35;2.50;56.30
76893;DHT22;65854;51.466;7.260;2023-03-01T10:55:33;2.50;57.20
76893;DHT22;65854;51.466;7.260;2023-03-01T10:58:09;2.60;56.10
76893;DHT22;65854;51.466;7.260;2023-03-01T11:00:52;2.70;56.30
76893;DHT22;65854;51.466;7.260;2023-03-01T11:03:28;2.70;55.90
76893;DHT22;65854;51.466;7.260;2023-03-01T11:06:20;2.80;56.40
76893;DHT22;65854;51.466;7.260;2023-03-01T11:08:49;2.90;56.60
76893;DHT22;65854;51.466;7.260;2023-03-01T11:11:32;2.90;55.90
76893;DHT22;65854;51.466;7.260;2023-03-01T11:14:21;3.00;56.40
76893;DHT22;65854;51.466;7.260;2023-03-01T11:16:59;3.00;56.20
76893;DHT22;65854;51.466;7.260;2023-03-01T11:19:25;3.00;57.10
76893;DHT22;65854;51.466;7.260;2023-03-01T11:22:12;3.10;54.90
76893;DHT22;65854;51.466;7.260;2023-03-01T11:24:53;3.10;55.90
76893;DHT22;65854;51.466;7.260;2023-03-01T11:27:26;3.20;55.90
76893;DHT22;65854;51.466;7.260;2023-03-01T11:30:13;3.20;55.60
76893;DHT22;65854;51.466;7.260;2023-03-01T11:32:50;3.30;55.70
76893;DHT22;65854;51.466;7.260;2023-03-01T11:35:21;3.30;55.60
76893;DHT22;65854;51.466;7.260;2023-03-01T11:37:59;3.30;55.50
76893;DHT22;65854;51.466;7.260;2023-03-01T11:40:41;3.30;55.50
76893;DHT22;65854;51.466;7.260;2023-03-01T11:43:51;3.30;55.70
76893;DHT22;65854;51.466;7.260;2023-03-01T11:46:37;3.40;55.40
76893;DHT22;65854;51.466;7.260;2023-03-01T11:52:33;3.50;54.40
76893;DHT22;65854;51.466;7.260;2023-03-01T11:58:08;3.60;55.50
76893;DHT22;65854;51.466;7.260;2023-03-01T12:00:42;3.70;55.50
76893;DHT22;65854;51.466;7.260;2023-03-01T12:06:22;3.80;53.90
76893;DHT22;65854;51.466;7.260;2023-03-01T12:09:09;3.80;54.20
76893;DHT22;65854;51.466;7.260;2023-03-01T12:15:08;4.00;54.60
76893;DHT22;65854;51.466;7.260;2023-03-01T12:30:25;4.10;53.80
76893;DHT22;65854;51.466;7.260;2023-03-01T12:33:22;4.10;53.50
76893;DHT22;65854;51.466;7.260;2023-03-01T12:35:32;4.20;53.50
76893;DHT22;65854;51.466;7.260;2023-03-01T12:38:42;4.20;53.60
76893;DHT22;65854;51.466;7.260;2023-03-01T12:44:28;4.40;53.20
76893;DHT22;65854;51.466;7.260;2023-03-01T12:50:17;4.40;53.20
76893;DHT22;65854;51.466;7.260;2023-03-01T12:52:55;4.50;53.80
76893;DHT22;65854;51.466;7.260;2023-03-01T12:55:33;4.50;53.90
76893;DHT22;65854;51.466;7.260;2023-03-01T13:06:25;4.60;52.80
76893;DHT22;65854;51.466;7.260;2023-03-01T13:09:23;4.70;52.80
76893;DHT22;65854;51.466;7.260;2023-03-01T13:11:49;4.70;52.50
76893;DHT22;65854;51.466;7.260;2023-03-01T13:14:47;4.80;51.70
76893;DHT22;65854;51.466;7.260;2023-03-01T13:17:41;4.90;51.00
76893;DHT22;65854;51.466;7.260;2023-03-01T13:20:16;4.80;51.40
76893;DHT22;65854;51.466;7.260;2023-03-01T13:23:24;4.90;51.20
76893;DHT22;65854;51.466;7.260;2023-03-01T13:26:18;5.00;51.40
76893;DHT22;65854;51.466;7.260;2023-03-01T13:28:52;5.00;50.90
76893;DHT22;65854;51.466;7.260;2023-03-01T13:34:00;5.00;50.00
76893;DHT22;65854;51.466;7.260;2023-03-01T13:36:46;5.10;48.30
76893;DHT22;65854;51.466;7.260;2023-03-01T13:39:30;5.10;48.50
76893;DHT22;65854;51.466;7.260;2023-03-01T13:42:01;5.10;49.10
76893;DHT22;65854;51.466;7.260;2023-03-01T13:44:53;5.20;48.50
76893;DHT22;65854;51.466;7.260;2023-03-01T13:47:20;5.30;47.00
76893;DHT22;65854;51.466;7.260;2023-03-01T13:49:55;5.30;49.50
76893;DHT22;65854;51.466;7.260;2023-03-01T13:55:16;5.40;49.10
76893;DHT22;65854;51.466;7.260;2023-03-01T13:58:30;5.40;48.10
76893;DHT22;65854;51.466;7.260;2023-03-01T14:01:34;5.40;49.20
76893;DHT22;65854;51.466;7.260;2023-03-01T14:06:48;5.50;48.60
76893;DHT22;65854;51.466;7.260;2023-03-01T14:09:45;5.50;49.20
76893;DHT22;65854;51.466;7.260;2023-03-01T14:13:17;5.60;49.10
76893;DHT22;65854;51.466;7.260;2023-03-01T14:16:14;5.70;48.10
76893;DHT22;65854;51.466;7.260;2023-03-01T14:21:45;5.80;48.00
76893;DHT22;65854;51.466;7.260;2023-03-01T14:24:22;5.90;47.20
76893;DHT22;65854;51.466;7.260;2023-03-01T14:28:13;5.90;47.60
76893;DHT22;65854;51.466;7.260;2023-03-01T14:30:58;5.90;48.40
76893;DHT22;65854;51.466;7.260;2023-03-01T14:33:29;5.90;46.90
76893;DHT22;65854;51.466;7.260;2023-03-01T14:39:49;6.10;45.80
76893;DHT22;65854;51.466;7.260;2023-03-01T14:42:35;6.10;44.00
76893;DHT22;65854;51.466;7.260;2023-03-01T14:45:25;6.20;45.30
76893;DHT22;65854;51.466;7.260;2023-03-01T14:47:52;6.30;44.60
76893;DHT22;65854;51.466;7.260;2023-03-01T14:50:26;6.30;45.40
76893;DHT22;65854;51.466;7.260;2023-03-01T14:53:03;6.30;45.00
76893;DHT22;65854;51.466;7.260;2023-03-01T14:56:14;6.30;45.50
76893;DHT22;65854;51.466;7.260;2023-03-01T14:59:21;6.30;45.10
76893;DHT22;65854;51.466;7.260;2023-03-01T15:01:53;6.30;45.00
76893;DHT22;65854;51.466;7.260;2023-03-01T15:04:57;6.20;46.00
76893;DHT22;65854;51.466;7.260;2023-03-01T15:08:04;6.30;46.10
76893;DHT22;65854;51.466;7.260;2023-03-01T15:10:59;6.30;45.40
76893;DHT22;65854;51.466;7.260;2023-03-01T15:13:48;6.40;46.10
76893;DHT22;65854;51.466;7.260;2023-03-01T15:16:34;6.30;45.50
76893;DHT22;65854;51.466;7.260;2023-03-01T15:19:19;6.30;45.40
76893;DHT22;65854;51.466;7.260;2023-03-01T15:22:16;6.40;45.70
76893;DHT22;65854;51.466;7.260;2023-03-01T15:25:19;6.40;44.50
76893;DHT22;65854;51.466;7.260;2023-03-01T15:29:11;6.40;45.20
76893;DHT22;65854;51.466;7.260;2023-03-01T15:32:21;6.50;45.00
76893;DHT22;65854;51.466;7.260;2023-03-01T15:38:24;6.60;44.90
76893;DHT22;65854;51.466;7.260;2023-03-01T15:40:52;6.60;44.50
76893;DHT22;65854;51.466;7.260;2023-03-01T15:43:45;6.60;44.40
76893;DHT22;65854;51.466;7.260;2023-03-01T15:48:56;6.50;44.70
76893;DHT22;65854;51.466;7.260;2023-03-01T15:51:35;6.60;44.10
76893;DHT22;65854;51.466;7.260;2023-03-01T15:54:11;6.60;44.10
76893;DHT22;65854;51.466;7.260;2023-03-01T15:56:39;6.60;43.90
76893;DHT22;65854;51.466;7.260;2023-03-01T15:59:27;6.50;43.50
76893;DHT22;65854;51.466;7.260;2023-03-01T16:02:26;6.50;43.70
76893;DHT22;65854;51.466;7.260;2023-03-01T16:05:22;6.50;43.30
76893;DHT22;65854;51.466;7.260;2023-03-01T16:08:18;6.40;43.80
76893;DHT22;65854;51.466;7.260;2023-03-01T16:11:24;6.40;44.00
76893;DHT22;65854;51.466;7.260;2023-03-01T16:14:13;6.40;43.80
76893;DHT22;65854;51.466;7.260;2023-03-01T16:17:03;6.30;44.60
76893;DHT22;65854;51.466;7.260;2023-03-01T16:20:12;6.30;44.70
76893;DHT22;65854;51.466;7.260;2023-03-01T16:23:07;6.20;45.20
76893;DHT22;65854;51.466;7.260;2023-03-01T16:26:07;6.10;45.30
76893;DHT22;65854;51.466;7.260;2023-03-01T16:28:33;6.00;45.20
76893;DHT22;65854;51.466;7.260;2023-03-01T16:30:59;5.90;45.20
76893;DHT22;65854;51.466;7.260;2023-03-01T16:33:26;5.90;45.60
76893;DHT22;65854;51.466;7.260;2023-03-01T16:35:52;5.80;45.50
76893;DHT22;65854;51.466;7.260;2023-03-01T16:38:20;5.70;45.80
76893;DHT22;65854;51.466;7.260;2023-03-01T16:40:48;5.70;46.00
76893;DHT22;65854;51.466;7.260;2023-03-01T16:43:16;5.60;46.10
76893;DHT22;65854;51.466;7.260;2023-03-01T16:45:42;5.60;46.10
76893;DHT22;65854;51.466;7.260;2023-03-01T16:48:38;5.50;46.00
76893;DHT22;65854;51.466;7.260;2023-03-01T16:51:49;5.50;46.00
76893;DHT22;65854;51.466;7.260;2023-03-01T16:54:58;5.40;46.10
76893;DHT22;65854;51.466;7.260;2023-03-01T16:57:27;5.30;46.90
76893;DHT22;65854;51.466;7.260;2023-03-01T16:59:52;5.30;46.70
76893;DHT22;65854;51.466;7.260;2023-03-01T17:02:19;5.20;47.00
76893;DHT22;65854;51.466;7.260;2023-03-01T17:04:53;5.10;47.30
76893;DHT22;65854;51.466;7.260;2023-03-01T17:07:34;5.10;47.10
76893;DHT22;65854;51.466;7.260;2023-03-01T17:10:32;5.10;47.10
76893;DHT22;65854;51.466;7.260;2023-03-01T17:13:00;5.00;47.20
76893;DHT22;65854;51.466;7.260;2023-03-01T17:15:54;4.90;47.50
76893;DHT22;65854;51.466;7.260;2023-03-01T17:18:57;4.90;47.30
76893;DHT22;65854;51.466;7.260;2023-03-01T17:22:03;4.80;47.80
76893;DHT22;65854;51.466;7.260;2023-03-01T17:24:59;4.80;47.50
76893;DHT22;65854;51.466;7.260;2023-03-01T17:28:13;4.70;48.00
76893;DHT22;65854;51.466;7.260;2023-03-01T17:31:04;4.70;47.60
76893;DHT22;65854;51.466;7.260;2023-03-01T17:34:31;4.60;48.10
76893;DHT22;65854;51.466;7.260;2023-03-01T17:37:35;4.60;48.10
76893;DHT22;65854;51.466;7.260;2023-03-01T17:40:10;4.50;48.70
76893;DHT22;65854;51.466;7.260;2023-03-01T17:43:19;4.50;48.50
76893;DHT22;65854;51.466;7.260;2023-03-01T17:45:45;4.40;48.20
76893;DHT22;65854;51.466;7.260;2023-03-01T17:48:15;4.40;48.00
76893;DHT22;65854;51.466;7.260;2023-03-01T17:50:43;4.40;48.30
76893;DHT22;65854;51.466;7.260;2023-03-01T17:53:10;4.40;47.80
76893;DHT22;65854;51.466;7.260;2023-03-01T17:56:06;4.30;48.00
76893;DHT22;65854;51.466;7.260;2023-03-01T17:58:36;4.30;47.80